createdAt,value
2023-07-17T00:08:33.981Z,17.22
2023-07-17T00:22:45.051Z,16.7
2023-07-17T00:36:58.195Z,16.24
2023-07-17T00:51:04.395Z,16.17
2023-07-17T01:05:22.576Z,16.7
2023-07-17T01:19:29.751Z,16.55
2023-07-17T01:33:41.888Z,16.23
2023-07-17T01:47:54.979Z,15.99
2023-07-17T02:02:06.933Z,15.56
2023-07-17T02:16:18.789Z,15.26
2023-07-17T02:30:32.780Z,14.96
2023-07-17T02:44:41.061Z,14.69
2023-07-17T02:58:55.738Z,14.66
2023-07-17T03:13:06.124Z,14.51
2023-07-17T03:27:22.608Z,14.35
2023-07-17T03:41:28.221Z,14.17
2023-07-17T03:55:41.269Z,14.14
2023-07-17T04:09:54.087Z,14.28
2023-07-17T04:24:07.366Z,14.49
2023-07-17T04:38:20.764Z,14.6
2023-07-17T04:52:34.840Z,14.84
2023-07-17T05:06:49.338Z,15.2
2023-07-17T05:21:01.100Z,15.5
2023-07-17T05:35:17.408Z,16.39
2023-07-17T05:42:47.196Z,16.46
2023-07-17T05:49:31.331Z,16.77
2023-07-17T05:53:25.144Z,17.05
2023-07-17T05:54:29.136Z,17.09
2023-07-17T06:04:00.998Z,17.20
2023-07-17T06:05:05.074Z,17.24
2023-07-17T06:06:10.253Z,17.32
2023-07-17T06:07:11.209Z,17.32
2023-07-17T06:17:59.215Z,17.91
2023-07-17T06:24:03.200Z,17.96
2023-07-17T06:32:15.981Z,18.58
2023-07-17T06:40:56.693Z,18.62
2023-07-17T06:41:59.183Z,18.68
2023-07-17T06:43:01.764Z,18.74
2023-07-17T06:44:04.180Z,18.82
2023-07-17T06:45:08.302Z,18.90
2023-07-17T06:46:10.586Z,18.98
2023-07-17T06:47:20.953Z,19.06
2023-07-17T06:48:15.525Z,19.12
2023-07-17T06:49:17.987Z,19.18
2023-07-17T06:50:20.382Z,19.24
2023-07-17T06:51:22.819Z,19.31
2023-07-17T06:52:25.294Z,19.33
2023-07-17T07:00:41.899Z,19.62
2023-07-17T07:14:57.019Z,20.15
2023-07-17T07:29:12.617Z,20.77
2023-07-17T07:30:05.915Z,20.78
2023-07-17T07:31:08.408Z,20.80
2023-07-17T07:32:11.890Z,20.82
2023-07-17T07:33:13.380Z,20.84
2023-07-17T07:34:15.818Z,20.88
2023-07-17T07:35:19.896Z,20.91
2023-07-17T07:36:22.206Z,20.96
2023-07-17T07:37:24.665Z,21.01
2023-07-17T07:38:27.093Z,21.05
2023-07-17T07:39:31.204Z,21.10
2023-07-17T07:40:33.499Z,21.13
2023-07-17T07:41:37.659Z,21.14
2023-07-17T07:43:42.361Z,21.15
2023-07-17T07:46:51.258Z,21.13
2023-07-17T07:47:53.748Z,21.12
2023-07-17T07:49:58.536Z,21.13
2023-07-17T07:52:04.874Z,21.14
2023-07-17T07:54:20.789Z,21.16
2023-07-17T07:55:13.972Z,21.17
2023-07-17T07:56:18.054Z,21.19
2023-07-17T07:57:21.783Z,21.21
2023-07-17T07:58:25.808Z,21.25
2023-07-17T07:59:29.588Z,21.31
2023-07-17T08:00:31.865Z,21.33
2023-07-17T08:01:34.333Z,21.37
2023-07-17T08:02:36.832Z,21.42
2023-07-17T08:03:40.939Z,21.46
2023-07-17T08:04:44.810Z,21.51
2023-07-17T08:05:48.733Z,21.55
2023-07-17T08:06:51.065Z,21.60
2023-07-17T08:07:53.527Z,21.65
2023-07-17T08:08:56.028Z,21.71
2023-07-17T08:10:00.218Z,21.74
2023-07-17T08:11:02.487Z,21.80
2023-07-17T08:12:04.972Z,21.85
2023-07-17T08:13:07.501Z,21.90
2023-07-17T08:14:11.571Z,21.94
2023-07-17T08:15:13.889Z,21.98
2023-07-17T08:16:16.640Z,22.02
2023-07-17T08:17:20.437Z,22.07
2023-07-17T08:18:22.847Z,22.11
2023-07-17T08:19:25.231Z,22.14
2023-07-17T08:20:27.708Z,22.18
2023-07-17T08:21:30.314Z,22.21
2023-07-17T08:22:32.793Z,22.23
2023-07-17T08:23:35.262Z,22.26
2023-07-17T08:24:38.738Z,22.27
2023-07-17T08:25:41.210Z,22.30
2023-07-17T08:26:44.659Z,22.34
2023-07-17T08:36:18.285Z,22.46
2023-07-17T08:37:20.754Z,22.53
2023-07-17T08:38:23.349Z,22.60
2023-07-17T08:39:27.377Z,22.66
2023-07-17T08:40:29.744Z,22.71
2023-07-17T08:41:32.260Z,22.77
2023-07-17T08:42:34.763Z,22.82
2023-07-17T08:43:38.869Z,22.86
2023-07-17T08:44:42.265Z,22.90
2023-07-17T08:45:46.219Z,22.95
2023-07-17T08:46:50.134Z,22.99
2023-07-17T08:47:54.121Z,23.03
2023-07-17T08:48:56.423Z,23.08
2023-07-17T08:49:58.883Z,23.09
2023-07-17T08:51:01.291Z,23.15
2023-07-17T08:52:05.968Z,23.19
2023-07-17T08:53:08.889Z,23.22
2023-07-17T08:54:20.342Z,23.26
2023-07-17T08:55:15.274Z,23.32
2023-07-17T08:56:18.740Z,23.37
2023-07-17T08:57:21.131Z,23.40
2023-07-17T08:58:26.204Z,23.44
2023-07-17T08:59:29.486Z,23.50
2023-07-17T09:00:32.907Z,23.55
2023-07-17T09:01:35.336Z,23.59
2023-07-17T09:02:37.773Z,23.62
2023-07-17T09:03:40.367Z,23.65
2023-07-17T09:04:42.701Z,23.69
2023-07-17T09:05:46.789Z,23.73
2023-07-17T09:06:49.140Z,23.79
2023-07-17T09:07:51.668Z,23.86
2023-07-17T09:08:55.791Z,23.94
2023-07-17T09:09:59.115Z,23.99
2023-07-17T09:11:01.565Z,24.04
2023-07-17T09:12:05.653Z,24.09
2023-07-17T09:13:08.976Z,24.12
2023-07-17T09:14:12.410Z,24.17
2023-07-17T09:15:15.735Z,24.21
2023-07-17T09:16:18.179Z,24.24
2023-07-17T09:17:22.394Z,24.25
2023-07-17T09:18:24.577Z,24.27
2023-07-17T09:19:27.041Z,24.26
2023-07-17T09:20:29.496Z,24.28
2023-07-17T09:21:32.009Z,24.30
2023-07-17T09:22:34.558Z,24.31
2023-07-17T09:23:37.000Z,24.32
2023-07-17T09:25:41.986Z,24.34
2023-07-17T09:26:46.157Z,24.36
2023-07-17T09:27:51.192Z,24.37
2023-07-17T09:28:53.402Z,24.35
2023-07-17T09:29:55.806Z,24.38
2023-07-17T09:30:59.738Z,24.37
2023-07-17T09:32:03.715Z,24.38
2023-07-17T09:33:06.253Z,24.41
2023-07-17T09:34:08.543Z,24.44
2023-07-17T09:35:15.880Z,24.41
2023-07-17T09:37:22.075Z,24.49
2023-07-17T09:38:24.393Z,24.52
2023-07-17T09:40:31.049Z,24.56
2023-07-17T09:41:33.329Z,24.58
2023-07-17T09:42:35.880Z,24.64
2023-07-17T09:43:38.249Z,24.69
2023-07-17T09:44:40.767Z,24.73
2023-07-17T09:45:43.253Z,24.74
2023-07-17T09:46:45.796Z,24.77
2023-07-17T09:47:50.922Z,24.80
2023-07-17T09:48:55.691Z,24.87
2023-07-17T09:49:59.572Z,24.93
2023-07-17T09:51:01.862Z,25.00
2023-07-17T09:52:04.304Z,25.03
2023-07-17T09:53:06.905Z,25.07
2023-07-17T09:54:09.272Z,25.12
2023-07-17T09:55:13.336Z,25.17
2023-07-17T09:56:15.684Z,25.21
2023-07-17T09:57:18.181Z,25.22
2023-07-17T09:58:21.676Z,25.26
2023-07-17T09:59:24.059Z,25.29
2023-07-17T10:00:28.109Z,25.32
2023-07-17T10:01:33.203Z,25.36
2023-07-17T10:02:36.348Z,25.41
2023-07-17T10:03:41.404Z,25.50
2023-07-17T10:04:43.654Z,25.60
2023-07-17T10:05:47.111Z,25.71
2023-07-17T10:06:51.162Z,25.80
2023-07-17T10:07:53.516Z,25.91
2023-07-17T10:08:56.948Z,25.97
2023-07-17T10:10:00.397Z,26.02
2023-07-17T10:11:03.748Z,26.14
2023-07-17T10:12:07.745Z,26.18
2023-07-17T10:13:10.114Z,26.26
2023-07-17T10:14:12.568Z,26.28
2023-07-17T10:15:15.121Z,26.33
2023-07-17T10:16:17.583Z,26.31
2023-07-17T10:17:20.012Z,26.25
2023-07-17T10:18:22.472Z,26.20
2023-07-17T10:19:24.940Z,26.15
2023-07-17T10:20:29.094Z,26.13
2023-07-17T10:21:31.504Z,26.14
2023-07-17T10:22:35.566Z,26.11
2023-07-17T10:23:37.878Z,26.09
2023-07-17T10:24:40.417Z,26.08
2023-07-17T10:25:42.913Z,26.10
2023-07-17T10:26:46.997Z,26.11
2023-07-17T10:27:49.301Z,26.15
2023-07-17T10:28:51.842Z,26.16
2023-07-17T10:29:54.465Z,26.17
2023-07-17T10:30:56.965Z,26.13
2023-07-17T10:31:59.446Z,26.09
2023-07-17T10:33:01.929Z,26.07
2023-07-17T10:34:06.002Z,25.98
2023-07-17T10:35:08.319Z,25.97
2023-07-17T10:36:10.740Z,25.89
2023-07-17T10:37:13.306Z,25.81
2023-07-17T10:38:15.741Z,25.73
2023-07-17T10:39:19.724Z,25.63
2023-07-17T10:40:23.652Z,25.55
2023-07-17T10:41:26.028Z,25.42
2023-07-17T10:42:28.438Z,25.37
2023-07-17T10:43:32.547Z,25.36
2023-07-17T10:44:34.911Z,25.32
2023-07-17T10:45:37.444Z,25.26
2023-07-17T10:46:41.537Z,25.19
2023-07-17T10:47:44.815Z,25.21
2023-07-17T10:48:48.770Z,25.20
2023-07-17T10:49:51.135Z,25.22
2023-07-17T10:50:53.605Z,25.25
2023-07-17T10:51:56.071Z,25.31
2023-07-17T10:53:00.153Z,25.35
2023-07-17T10:54:02.560Z,25.39
2023-07-17T10:55:06.575Z,25.42
2023-07-17T10:56:08.947Z,25.43
2023-07-17T10:57:13.052Z,25.49
2023-07-17T10:58:15.410Z,25.53
2023-07-17T10:59:17.881Z,25.52
2023-07-17T11:00:20.376Z,25.57
2023-07-17T11:01:22.866Z,25.62
2023-07-17T11:02:26.954Z,25.67
2023-07-17T11:03:30.308Z,25.76
2023-07-17T11:04:32.685Z,25.80
2023-07-17T11:05:36.774Z,25.85
2023-07-17T11:06:39.186Z,25.89
2023-07-17T11:07:41.668Z,25.93
2023-07-17T11:08:44.131Z,25.98
2023-07-17T11:10:50.757Z,26.03
2023-07-17T11:11:54.662Z,26.14
2023-07-17T11:12:56.987Z,26.22
2023-07-17T11:13:59.484Z,26.31
2023-07-17T11:15:02.070Z,26.42
2023-07-17T11:16:04.577Z,26.55
2023-07-17T11:17:07.058Z,26.66
2023-07-17T11:18:09.674Z,26.76
2023-07-17T11:19:12.054Z,26.85
2023-07-17T11:20:16.161Z,26.92
2023-07-17T11:21:18.839Z,26.91
2023-07-17T11:22:22.584Z,26.81
2023-07-17T11:23:24.922Z,26.77
2023-07-17T11:24:28.949Z,26.64
2023-07-17T11:25:32.917Z,26.55
2023-07-17T11:26:35.173Z,26.47
2023-07-17T11:27:37.690Z,26.40
2023-07-17T11:28:40.091Z,26.33
2023-07-17T11:29:43.419Z,26.27
2023-07-17T11:30:45.092Z,26.22
2023-07-17T11:31:47.618Z,26.15
2023-07-17T11:32:50.088Z,26.12
2023-07-17T11:33:52.522Z,26.07
2023-07-17T11:34:56.592Z,26.03
2023-07-17T11:35:58.894Z,25.92
2023-07-17T11:37:01.423Z,25.88
2023-07-17T11:38:06.590Z,25.96
2023-07-17T11:39:10.441Z,26.05
2023-07-17T11:40:12.806Z,26.10
2023-07-17T11:41:17.133Z,26.25
2023-07-17T11:42:19.223Z,26.35
2023-07-17T11:43:21.653Z,26.43
2023-07-17T11:44:24.173Z,26.49
2023-07-17T11:45:26.669Z,26.59
2023-07-17T11:46:29.191Z,26.52
2023-07-17T11:47:31.655Z,26.55
2023-07-17T11:48:35.726Z,26.69
2023-07-17T11:49:38.015Z,26.80
2023-07-17T11:50:40.537Z,26.90
2023-07-17T11:52:45.508Z,27.03
2023-07-17T11:54:51.534Z,26.99
2023-07-17T11:55:53.878Z,26.97
2023-07-17T11:56:56.338Z,26.95
2023-07-17T11:58:04.302Z,26.97
2023-07-17T12:00:06.869Z,27.00
2023-07-17T12:01:09.275Z,26.98
2023-07-17T12:02:11.677Z,26.91
2023-07-17T12:04:18.301Z,27.07
2023-07-17T12:05:20.583Z,27.05
2023-07-17T12:06:23.105Z,27.18
2023-07-17T12:07:25.592Z,27.32
2023-07-17T12:08:28.120Z,27.49
2023-07-17T12:09:30.618Z,27.61
2023-07-17T12:10:33.199Z,27.76
2023-07-17T12:11:35.661Z,27.81
2023-07-17T12:12:39.855Z,27.97
2023-07-17T12:13:43.769Z,28.06
2023-07-17T12:23:15.507Z,27.97
2023-07-17T12:24:19.533Z,28.01
2023-07-17T12:25:22.028Z,28.00
2023-07-17T12:26:24.620Z,27.99
2023-07-17T12:27:29.401Z,27.96
2023-07-17T12:28:29.541Z,28.07
2023-07-17T12:29:31.961Z,28.06
2023-07-17T12:30:34.471Z,28.04
2023-07-17T12:31:38.931Z,28.02
2023-07-17T12:33:45.450Z,28.00
2023-07-17T12:34:50.682Z,27.83
2023-07-17T12:35:51.539Z,27.86
2023-07-17T12:37:58.393Z,27.83
2023-07-17T12:39:00.528Z,27.75
2023-07-17T12:40:03.973Z,27.70
2023-07-17T12:41:07.918Z,27.66
2023-07-17T12:42:11.885Z,27.59
2023-07-17T12:43:14.240Z,27.56
2023-07-17T12:44:16.818Z,27.60
2023-07-17T12:45:19.298Z,27.74
2023-07-17T12:46:22.749Z,27.86
2023-07-17T12:47:25.239Z,28.01
2023-07-17T12:48:29.338Z,28.13
2023-07-17T12:49:31.673Z,28.26
2023-07-17T12:50:34.133Z,28.32
2023-07-17T12:51:38.260Z,28.48
2023-07-17T12:52:42.241Z,28.50
2023-07-17T12:53:46.169Z,28.51
2023-07-17T12:54:48.540Z,28.62
2023-07-17T12:55:56.124Z,28.65
2023-07-17T12:56:53.536Z,28.80
2023-07-17T12:57:56.249Z,28.93
2023-07-17T12:58:58.619Z,29.05
2023-07-17T13:00:01.045Z,28.99
2023-07-17T13:01:05.254Z,29.10
2023-07-17T13:02:07.651Z,29.19
2023-07-17T13:03:10.100Z,29.26
2023-07-17T13:10:36.414Z,29.14
2023-07-17T13:11:21.738Z,28.94
2023-07-17T13:11:40.332Z,28.94
2023-07-17T13:12:48.806Z,28.94
2023-07-17T13:14:49.244Z,28.94
2023-07-17T13:15:51.690Z,28.94
2023-07-17T13:25:35.820Z,28.89
2023-07-17T13:39:50.892Z,29.07
2023-07-17T13:40:07.188Z,28.98
2023-07-17T13:41:09.536Z,29.03
2023-07-17T13:42:12.029Z,29.02
2023-07-17T13:43:15.470Z,28.98
2023-07-17T13:44:17.933Z,29.07
2023-07-17T13:45:22.051Z,29.12
2023-07-17T13:54:04.417Z,28.96
2023-07-17T14:06:27.591Z,28.91
2023-07-17T14:07:31.571Z,28.84
2023-07-17T14:08:19.185Z,27.98
2023-07-17T14:22:30.090Z,28.17
2023-07-17T14:36:44.301Z,27.84
2023-07-17T14:50:59.849Z,28.64
2023-07-17T15:05:16.073Z,27.99
2023-07-17T15:19:27.346Z,27.76
2023-07-17T15:33:39.645Z,27.04
2023-07-17T15:47:53.602Z,27.44
2023-07-17T16:02:08.018Z,27.31
2023-07-17T16:16:21.270Z,26.94
2023-07-17T16:30:33.627Z,26.34
2023-07-17T16:44:48.530Z,26.44
2023-07-17T16:59:02.142Z,26
2023-07-17T17:13:13.446Z,25.37
2023-07-17T17:27:27.039Z,25.13
2023-07-17T17:41:39.943Z,24.92
2023-07-17T17:55:54.374Z,24.63
2023-07-17T18:10:05.552Z,24.28
2023-07-17T18:24:18.230Z,23.82
2023-07-17T18:38:30.242Z,23.24
2023-07-17T18:52:42.030Z,22.72
2023-07-17T19:06:55.263Z,22.08
2023-07-17T19:21:04.627Z,21.47
2023-07-17T19:35:16.445Z,20.85
2023-07-17T19:49:28.708Z,20.2
2023-07-17T20:03:41.991Z,19.57
2023-07-17T20:17:52.661Z,19.19
2023-07-17T20:32:04.751Z,18.92
2023-07-17T20:46:18.086Z,18.72
2023-07-17T21:00:31.012Z,18.49
2023-07-17T21:14:43.782Z,18.36
2023-07-17T21:28:57.751Z,18.22
2023-07-17T21:43:08.942Z,17.99
2023-07-17T21:57:20.967Z,17.68
2023-07-17T22:11:33.655Z,17.51
2023-07-17T22:25:47.081Z,17.2
2023-07-17T22:39:58.413Z,16.79
2023-07-17T22:54:08.053Z,16.43
2023-07-17T23:08:19.917Z,16.13
2023-07-17T23:22:32.519Z,15.86
2023-07-17T23:36:45.281Z,15.73
2023-07-17T23:50:55.449Z,15.54
